createdAt,value
2022-09-23T00:03:00.587Z,8.30
2022-09-23T00:07:39.613Z,8.20
2022-09-23T02:51:02.212Z,7.10
2022-09-23T02:55:18.573Z,7.00
2022-09-23T02:59:33.632Z,7.00
2022-09-23T03:04:13.147Z,7.00
2022-09-23T03:08:43.018Z,7.00
2022-09-23T03:13:06.273Z,6.90
2022-09-23T03:17:27.320Z,6.90
2022-09-23T03:21:46.220Z,6.80
2022-09-23T03:26:05.119Z,6.70
2022-09-23T03:30:21.717Z,6.70
2022-09-23T03:34:37.883Z,6.70
2022-09-23T03:38:54.948Z,6.60
2022-09-23T03:43:11.657Z,6.60
2022-09-23T03:47:27.019Z,6.60
2022-09-23T03:51:44.517Z,6.50
2022-09-23T03:55:58.750Z,6.50
2022-09-23T04:00:16.003Z,6.50
2022-09-23T04:04:33.957Z,6.50
2022-09-23T04:08:47.572Z,6.50
2022-09-23T04:13:01.335Z,6.50
2022-09-23T04:17:16.423Z,6.50
2022-09-23T04:21:31.617Z,6.50
2022-09-23T04:25:46.825Z,6.50
2022-09-23T04:30:00.564Z,6.40
2022-09-23T04:34:17.686Z,6.50
2022-09-23T04:38:31.625Z,6.40
2022-09-23T04:42:45.351Z,6.40
2022-09-23T04:46:59.060Z,6.50
2022-09-23T04:51:15.748Z,6.40
2022-09-23T04:55:29.757Z,6.40
2022-09-23T04:59:45.243Z,6.40
2022-09-23T05:04:02.434Z,6.40
2022-09-23T05:08:17.577Z,6.40
2022-09-23T05:12:31.241Z,6.50
2022-09-23T05:16:44.941Z,6.60
2022-09-23T05:20:58.761Z,6.90
2022-09-23T05:25:13.866Z,7.50
2022-09-23T05:29:27.953Z,8.30
2022-09-23T05:33:42.580Z,9.20
2022-09-23T05:37:56.236Z,10.00
2022-09-23T05:42:12.405Z,10.10
2022-09-23T05:46:28.225Z,9.40
2022-09-23T05:50:49.914Z,8.90
2022-09-23T05:55:03.679Z,8.50
2022-09-23T05:59:18.686Z,8.20
2022-09-23T06:03:32.414Z,8.00
2022-09-23T06:07:46.154Z,8.00
2022-09-23T06:11:59.904Z,8.00
2022-09-23T06:16:16.703Z,8.20
2022-09-23T06:20:30.976Z,8.40
2022-09-23T06:24:44.689Z,8.70
2022-09-23T06:28:58.473Z,9.90
2022-09-23T06:33:13.912Z,11.50
2022-09-23T06:37:27.935Z,13.10
2022-09-23T06:41:41.886Z,14.30
2022-09-23T06:46:02.124Z,15.40
2022-09-23T06:50:17.233Z,16.10
2022-09-23T06:54:31.719Z,16.80
2022-09-23T06:58:46.229Z,17.70
2022-09-23T07:02:59.942Z,18.70
2022-09-23T07:07:16.452Z,19.40
2022-09-23T07:11:30.552Z,19.80
2022-09-23T07:15:49.809Z,20.20
2022-09-23T07:20:04.535Z,20.70
2022-09-23T07:24:19.569Z,20.70
2022-09-23T07:28:33.355Z,20.80
2022-09-23T07:32:49.191Z,20.80
2022-09-23T07:37:03.127Z,20.70
2022-09-23T07:41:20.061Z,20.70
2022-09-23T07:45:34.391Z,21.10
2022-09-23T07:49:48.044Z,21.90
2022-09-23T07:54:02.031Z,22.70
2022-09-23T07:58:17.202Z,23.20
2022-09-23T08:02:31.437Z,23.90
2022-09-23T08:06:46.791Z,24.70
2022-09-23T08:11:03.263Z,24.80
2022-09-23T08:15:18.674Z,25.00
2022-09-23T08:19:32.720Z,24.80
2022-09-23T08:23:46.926Z,24.20
2022-09-23T08:28:01.162Z,23.60
2022-09-23T08:32:16.308Z,23.30
2022-09-23T08:36:30.023Z,23.60
2022-09-23T08:40:47.407Z,24.10
2022-09-23T08:45:04.651Z,24.60
2022-09-23T08:49:25.355Z,25.20
2022-09-23T08:53:40.400Z,26.00
2022-09-23T08:58:24.508Z,26.60
2022-09-23T09:02:38.996Z,27.30
2022-09-23T09:07:12.370Z,27.70
2022-09-23T09:11:37.098Z,27.90
2022-09-23T09:15:59.107Z,27.90
2022-09-23T09:20:23.261Z,27.70
2022-09-23T09:24:39.492Z,27.60
2022-09-23T09:29:11.417Z,27.20
2022-09-23T09:33:39.494Z,27.00
2022-09-23T09:37:53.466Z,26.90
2022-09-23T09:42:14.943Z,27.40
2022-09-23T09:46:45.181Z,28.10
2022-09-23T09:51:18.671Z,29.00
2022-09-23T09:55:32.543Z,29.60
2022-09-23T09:59:47.609Z,30.20
2022-09-23T10:04:04.632Z,30.40
2022-09-23T10:08:26.050Z,30.30
2022-09-23T10:12:46.187Z,30.30
2022-09-23T10:17:06.939Z,30.30
2022-09-23T10:21:27.716Z,30.10
2022-09-23T10:25:42.921Z,30.20
2022-09-23T10:29:58.108Z,30.40
2022-09-23T10:34:25.097Z,30.20
2022-09-23T10:38:39.002Z,29.70
2022-09-23T10:43:26.724Z,29.20
2022-09-23T10:47:50.679Z,28.90
2022-09-23T10:52:27.163Z,29.10
2022-09-23T10:56:44.316Z,28.80
2022-09-23T11:01:13.626Z,28.50
2022-09-23T11:05:36.716Z,28.40
2022-09-23T11:10:28.954Z,28.30
2022-09-23T11:15:14.463Z,28.30
2022-09-23T11:19:56.562Z,28.10
2022-09-23T11:24:51.010Z,28.30
2022-09-23T11:29:35.516Z,28.50
2022-09-23T11:34:01.668Z,28.20
2022-09-23T11:38:25.876Z,26.90
2022-09-23T11:42:45.566Z,26.20
2022-09-23T11:47:05.627Z,26.00
2022-09-23T11:51:24.640Z,26.30
2022-09-23T11:55:54.062Z,26.40
2022-09-23T12:00:19.085Z,26.20
2022-09-23T12:04:52.476Z,25.50
2022-09-23T12:09:31.158Z,25.00
2022-09-23T12:14:03.076Z,24.10
2022-09-23T12:18:42.206Z,23.50
2022-09-23T12:23:10.749Z,23.10
2022-09-23T12:27:34.122Z,22.70
2022-09-23T12:31:49.792Z,21.90
2022-09-23T12:36:06.060Z,21.20
2022-09-23T12:40:28.748Z,20.90
2022-09-23T12:44:44.650Z,20.70
2022-09-23T12:49:03.644Z,20.40
2022-09-23T12:53:54.735Z,20.30
2022-09-23T12:58:39.232Z,20.30
2022-09-23T13:03:16.630Z,20.40
2022-09-23T13:07:34.198Z,20.50
2022-09-23T13:11:50.469Z,20.40
2022-09-23T13:16:21.506Z,20.40
2022-09-23T13:20:38.485Z,20.60
2022-09-23T13:24:55.589Z,20.50
2022-09-23T13:29:18.139Z,20.30
2022-09-23T13:33:40.215Z,20.20
2022-09-23T13:37:55.313Z,20.10
2022-09-23T13:42:22.017Z,20.20
2022-09-23T13:46:42.895Z,20.10
2022-09-23T13:50:58.122Z,19.90
2022-09-23T13:55:29.163Z,19.60
2022-09-23T13:59:43.690Z,19.40
2022-09-23T14:03:57.471Z,19.20
2022-09-23T14:08:14.078Z,19.10
2022-09-23T14:12:28.307Z,19.10
2022-09-23T14:16:43.525Z,19.00
2022-09-23T14:20:57.464Z,18.90
2022-09-23T14:25:17.782Z,18.80
2022-09-23T14:29:34.623Z,18.70
2022-09-23T14:33:52.148Z,18.60
2022-09-23T14:38:23.912Z,18.60
2022-09-23T14:42:42.661Z,18.70
2022-09-23T14:46:58.958Z,18.80
2022-09-23T14:51:16.932Z,18.90
2022-09-23T14:55:32.132Z,19.00
2022-09-23T14:59:53.078Z,18.90
2022-09-23T15:04:16.871Z,18.80
2022-09-23T15:08:31.164Z,18.70
2022-09-23T15:12:45.615Z,18.60
2022-09-23T15:17:01.756Z,18.60
2022-09-23T15:21:18.984Z,18.60
2022-09-23T15:25:35.494Z,18.60
2022-09-23T15:29:50.859Z,18.60
2022-09-23T15:34:06.223Z,18.60
2022-09-23T15:38:20.022Z,18.60
2022-09-23T15:42:33.780Z,18.60
2022-09-23T15:46:49.968Z,18.60
2022-09-23T15:51:08.096Z,18.60
2022-09-23T15:55:23.604Z,18.60
2022-09-23T15:59:38.257Z,18.60
2022-09-23T16:03:51.930Z,18.50
2022-09-23T16:08:09.418Z,18.40
2022-09-23T16:12:23.441Z,18.30
2022-09-23T16:16:37.156Z,18.20
2022-09-23T16:20:51.304Z,18.10
2022-09-23T16:25:08.705Z,18.00
2022-09-23T16:29:22.428Z,17.80
2022-09-23T16:33:36.216Z,17.70
2022-09-23T16:37:50.815Z,17.60
2022-09-23T16:42:06.150Z,17.50
2022-09-23T16:46:21.375Z,17.40
2022-09-23T16:50:35.617Z,17.20
2022-09-23T16:54:49.662Z,17.00
2022-09-23T16:59:05.844Z,16.80
2022-09-23T17:03:37.301Z,16.60
2022-09-23T17:07:50.988Z,16.40
2022-09-23T17:12:12.830Z,16.30
2022-09-23T17:16:30.285Z,16.10
2022-09-23T17:20:43.992Z,16.00
2022-09-23T17:24:57.928Z,16.00
2022-09-23T17:29:11.819Z,15.80
2022-09-23T17:33:28.033Z,15.70
2022-09-23T17:37:41.941Z,15.60
2022-09-23T17:41:58.588Z,15.50
2022-09-23T17:46:14.856Z,15.40
2022-09-23T17:50:31.154Z,15.30
2022-09-23T17:54:45.367Z,15.30
2022-09-23T17:59:02.188Z,15.20
2022-09-23T18:03:15.908Z,15.10
2022-09-23T18:07:31.171Z,15.00
2022-09-23T18:11:48.049Z,14.90
2022-09-23T18:16:03.953Z,14.80
2022-09-23T18:20:17.811Z,14.80
2022-09-23T18:24:37.823Z,14.70
2022-09-23T18:28:55.667Z,14.60
2022-09-23T18:33:09.396Z,14.50
2022-09-23T18:37:23.130Z,14.40
2022-09-23T18:41:38.381Z,14.40
2022-09-23T18:45:59.660Z,14.30
2022-09-23T18:50:31.150Z,14.20
2022-09-23T18:54:45.011Z,14.20
2022-09-23T18:59:00.222Z,14.00
2022-09-23T19:03:14.132Z,14.00
2022-09-23T19:07:27.918Z,14.00
2022-09-23T19:11:41.645Z,13.90
2022-09-23T19:15:56.767Z,13.90
2022-09-23T19:20:11.155Z,13.80
2022-09-23T19:24:24.929Z,13.70
2022-09-23T19:28:39.227Z,13.70
2022-09-23T19:32:54.273Z,13.60
2022-09-23T19:37:07.921Z,13.60
2022-09-23T19:41:21.588Z,13.50
2022-09-23T19:45:36.000Z,13.50
2022-09-23T19:49:51.206Z,13.50
2022-09-23T19:54:07.130Z,13.50
2022-09-23T19:58:20.907Z,13.50
2022-09-23T20:02:35.044Z,13.50
2022-09-23T20:06:50.119Z,13.50
2022-09-23T20:11:10.152Z,13.50
2022-09-23T20:15:24.084Z,13.50
2022-09-23T20:19:37.897Z,13.40
2022-09-23T20:23:53.416Z,13.50
2022-09-23T20:28:07.045Z,13.40
2022-09-23T20:32:20.813Z,13.50
2022-09-23T20:36:35.394Z,13.50
2022-09-23T20:40:57.192Z,13.50
2022-09-23T20:45:11.509Z,13.40
2022-09-23T20:49:25.376Z,13.40
2022-09-23T20:53:39.024Z,13.40
2022-09-23T20:57:54.409Z,13.40
2022-09-23T21:02:09.076Z,13.40
2022-09-23T21:06:26.142Z,13.30
2022-09-23T21:10:39.911Z,13.30
2022-09-23T21:14:54.951Z,13.30
2022-09-23T21:19:09.035Z,13.30
2022-09-23T21:23:26.773Z,13.20
2022-09-23T21:27:40.521Z,13.30
2022-09-23T21:31:55.630Z,13.20
2022-09-23T21:36:10.592Z,13.20
2022-09-23T21:40:41.641Z,13.20
2022-09-23T21:44:55.388Z,13.20
2022-09-23T21:49:10.430Z,13.10
2022-09-23T21:53:24.909Z,13.10
2022-09-23T21:57:38.827Z,13.10
2022-09-23T22:01:54.321Z,13.00
2022-09-23T22:06:12.312Z,12.90
2022-09-23T22:10:25.960Z,12.80
2022-09-23T22:14:39.892Z,12.80
2022-09-23T22:18:55.219Z,12.70
2022-09-23T22:23:10.237Z,12.70
2022-09-23T22:27:24.949Z,12.60
2022-09-23T22:31:56.211Z,12.50
2022-09-23T22:36:11.548Z,12.40
2022-09-23T22:40:26.782Z,12.40
2022-09-23T22:44:41.606Z,12.40
2022-09-23T22:48:55.908Z,12.30
2022-09-23T22:53:11.373Z,12.20
2022-09-23T22:57:27.036Z,12.20
2022-09-23T23:01:41.975Z,12.20
2022-09-23T23:05:57.734Z,12.10
2022-09-23T23:10:15.587Z,12.10
2022-09-23T23:14:31.421Z,12.00
2022-09-23T23:18:47.645Z,12.00
2022-09-23T23:23:02.729Z,12.00
2022-09-23T23:27:16.713Z,11.90
2022-09-23T23:31:33.212Z,11.80
2022-09-23T23:35:51.608Z,11.80
2022-09-23T23:40:05.960Z,11.80
2022-09-23T23:44:19.809Z,11.70
2022-09-23T23:48:36.364Z,11.70
2022-09-23T23:52:50.044Z,11.70
2022-09-23T23:57:04.023Z,11.60
